EGNMENVA

Guest
Details From EGNM - Leeds Bradford
To ENVA - Vaernes
Flight Number -
Tags Generated
Created
Modified
Stats Distance 695 nm / 1,287 km
Max Altitude 0 ft / 0 m
Waypoints 4
Social Downloads 0
Likes 0
Share VATSIM

Download

Looking for another format? Having issues loading an existing format? Contact us
Advertisement - Login to hide

Notes

Generated

Route

EGNM FLE51 R2210 ENVA

ID Type Via Altitude Latitude Longitude Leg Dist Tot Dist Heading (true) Name
O EGNM APT - 0 ft / 0 m 53.87335˚ -1.67205˚ - 0 nm - -
FLE51 FIX - 0 ft / 0 m 60.05374˚ 5.29152˚ 435 nm 435 nm 29° / 35° -
R2210 FIX - 0 ft / 0 m 63.45765˚ 10.89449˚ 258 nm 694 nm 35° / 40° -
O ENVA APT - 0 ft / 0 m 63.46455˚ 10.92316˚ 0 nm 694 nm 62° / 62° Vaernes

Altitude Profile

Advertisement - Login to hide

Weather


0- 5 10 15 20 25 30 35+ Temperature / ° C

Clouds and Precipitation
Forecast for 2017-12-17 18:00 UTC. Updated an hour ago

Ground ~20,000 ft ~40,000 ft Winds

EGNM

Details ICAO EGNM (LBA)
Name Leeds Bradford
Region United Kingdom
Timezone Europe/London (UTC+0.0)
Stats Elevation 681 ft / 208 m (AMSL)
Location 53.866027° -1.660778°
Runways 1
Magnetic Variation 1.297° W

METAR

EGNM 171420Z 24013KT 210V270 9999 -RA SCT008 BKN013 07/05 Q1013

Decode

TAF

TAF AMD EGNM 171336Z 1713/1812 23010KT 9999 BKN015 TEMPO 1713/1715 BKN008 PROB30 TEMPO 1713/1715 -RADZ BKN004 BECMG 1714/1717 31010KT BECMG 1718/1721 CAVOK PROB30 1806/1811 6000

Decode

Departure Runways

ID Width Length Bearing (true) Bearing (mag) Surface Threshold Offset Overrun Length
14 151 ft / 46 m 7,377 ft / 2,248 m 137.79° 139.09° Concrete 1,024 ft / 312 m 46 ft / 14 m
32 151 ft / 46 m 7,377 ft / 2,248 m 317.81° 319.11° Concrete 899 ft / 274 m 49 ft / 15 m

ENVA

Details ICAO ENVA (TRD)
Name Vaernes
Region Norway
Timezone Europe/Oslo (UTC+1.0)
Stats Elevation 56 ft / 17 m (AMSL)
Location 63.457605° 10.917980°
Runways 1
Magnetic Variation 3.496° E

METAR

ENVA 171350Z 12007KT 100V160 9999 SCT050 BKN062 00/M06 Q1006 NOSIG RMK WIND 670FT 17014KT

Decode

TAF

TAF ENVA 171100Z 1712/1812 12008KT 9999 FEW010 SCT040 BECMG 1802/1804 24020G30KT TEMPO 1803/1809 2000 SN VV008

Decode

Destination Runways

ID Width Length Bearing (true) Bearing (mag) Surface Threshold Offset Overrun Length
09 148 ft / 45 m 9,356 ft / 2,852 m 90.21° 86.71° Asphalt 984 ft / 300 m 0 ft / 0 m
27 148 ft / 45 m 9,356 ft / 2,852 m 270.26° 266.76° Asphalt 689 ft / 210 m 0 ft / 0 m

Approach Navaids

Runway Type Ident Frequency Range Bearing (true) Bearing (mag) Slope Elevation
09 Localiser TO 110.30 MHz 18 nm / 33 km 90.26° 86.76° - 31 ft / 9 m (AMSL)
09 Glidescope TO 110.30 MHz 10 nm / 19 km 90.23° 86.73° 3.00° 56 ft / 17 m (AMSL)
09 DME TO 110.30 MHz 18 nm / 33 km - - - 31 ft / 9 m (AMSL)
27 Localiser TD 109.90 MHz 18 nm / 33 km 270.20° 266.70° - 56 ft / 17 m (AMSL)
27 Glidescope TD 109.90 MHz 10 nm / 19 km 270.23° 266.73° 3.40° 56 ft / 17 m (AMSL)
27 DME TD 109.90 MHz 18 nm / 33 km - - - 78 ft / 24 m (AMSL)